Wheeler, Texas
Current Conditions -  °F | °C
As of 8:15 PM on Monday 22 Dec 2014 (Local Time) from KHHF Reporting Station
Clear Clear  
Wind Chill: 43°   Ceiling: Unl
Heat Index: 43°   Visibility: NA
Dew Point: 32°   Wind: 3mph
Humidity: 65%   Direction: 240°WSW
Pressure: 29.73"   Gusts: NA
Location:  35.45°N, 100.27°W
Report Text: KHHF 230215Z AUTO 24003KT CLR 06/00 A2973 RMK AO2 T00591002 PWINO
Loading
Personal Weather Stations






























Interactive Weather Map New forecast layout! Learn more

10-Day Weather Forecast

Advertisements
Track Severe Weather on mobile